Time;durP1;ratioP1;P1;durP2;ratioP2;P2;SDS_P1;SDS_P2;PMS_P1;PMS_P2;Temp;Humidity;BMP_temperature;BMP_pressure;BME280_temperature;BME280_humidity;BME280_pressure;Samples;Min_cycle;Max_cycle;Signal;HPM_P1;HPM_P2
2023/04/01 00:00:56;;;;;;;9.10;4.40;;;;;;;4.28;100.00;98107.89;105293;1302;67840;-68
2023/04/01 00:03:44;;;;;;;10.90;5.30;;;;;;;4.27;100.00;98113.20;105511;1302;71531;-67
2023/04/01 00:06:31;;;;;;;2.30;4.00;;;;;;;4.26;100.00;98119.80;105358;1304;59338;-66
2023/04/01 00:09:17;;;;;;;10.00;4.70;;;;;;;4.21;100.00;98113.67;105503;1302;60315;-67
2023/04/01 00:12:07;;;;;;;11.10;5.10;;;;;;;4.18;100.00;98112.55;105454;1302;72050;-67
2023/04/01 00:14:54;;;;;;;8.00;3.00;;;;;;;4.16;100.00;98111.02;105407;1303;65496;-68
2023/04/01 00:17:41;;;;;;;10.40;4.50;;;;;;;4.12;100.00;98110.10;105572;1302;72835;-68
2023/04/01 00:20:28;;;;;;;10.40;5.40;;;;;;;4.09;100.00;98111.20;105281;1304;58577;-66
2023/04/01 00:23:16;;;;;;;13.90;6.40;;;;;;;4.03;100.00;98107.81;105229;1302;60244;-66
2023/04/01 00:26:04;;;;;;;9.50;4.70;;;;;;;3.97;100.00;98108.80;105483;1303;73127;-67
2023/04/01 00:28:51;;;;;;;9.60;4.90;;;;;;;3.92;100.00;98110.42;105444;1303;67746;-67
2023/04/01 00:31:37;;;;;;;9.20;5.00;;;;;;;3.90;100.00;98110.96;105330;1303;72823;-66
2023/04/01 00:34:23;;;;;;;11.30;4.80;;;;;;;3.89;100.00;98113.64;105431;1303;58030;-68
2023/04/01 00:37:11;;;;;;;8.60;4.10;;;;;;;3.83;100.00;98108.02;105469;1302;60620;-66
2023/04/01 00:39:57;;;;;;;9.40;4.60;;;;;;;3.83;100.00;98108.54;105344;1303;72933;-69
2023/04/01 00:42:44;;;;;;;8.50;3.80;;;;;;;3.79;100.00;98109.80;105327;1302;67961;-67
2023/04/01 00:45:34;;;;;;;5.60;2.20;;;;;;;3.73;100.00;98109.84;105264;1302;72546;-66
2023/04/01 00:48:46;;;;;;;7.20;3.40;;;;;;;3.67;100.00;98107.19;105494;1302;58697;-64
2023/04/01 00:51:35;;;;;;;7.50;3.20;;;;;;;3.64;100.00;98105.68;105224;1302;59152;-65
2023/04/01 00:54:25;;;;;;;6.90;2.90;;;;;;;3.63;100.00;98108.77;105276;1302;73424;-66
2023/04/01 00:57:40;;;;;;;9.10;3.90;;;;;;;3.61;100.00;98108.87;105515;1303;68548;-68
2023/04/01 01:00:27;;;;;;;7.50;3.10;;;;;;;3.55;100.00;98109.16;105306;1302;72594;-66
2023/04/01 01:03:14;;;;;;;8.10;3.70;;;;;;;3.53;100.00;98115.14;105452;1303;60517;-66
2023/04/01 01:06:27;;;;;;;7.90;3.60;;;;;;;3.53;100.00;98114.98;105339;1302;59964;-65
2023/04/01 01:09:19;;;;;;;;;;;;;;;3.54;100.00;98119.10;105454;1303;71641;-68
2023/04/01 01:12:24;;;;;;;;;;;;;;;3.52;100.00;98117.86;105456;1302;66570;-66
2023/04/01 01:15:32;;;;;;;8.80;3.20;;;;;;;3.49;100.00;98111.09;105474;1302;72372;-67
2023/04/01 01:18:54;;;;;;;5.30;1.60;;;;;;;3.44;100.00;98113.04;105507;1302;57349;-68
2023/04/01 01:22:04;;;;;;;7.70;3.60;;;;;;;3.40;100.00;98112.33;105537;1305;59467;-65
2023/04/01 01:25:21;;;;;;;7.70;3.50;;;;;;;3.33;100.00;98112.89;105339;1304;74419;-67
2023/04/01 01:28:28;;;;;;;;;;;;;;;3.29;100.00;98114.09;105295;1304;67791;-64
2023/04/01 01:31:39;;;;;;;8.50;4.00;;;;;;;3.30;100.00;98115.41;105247;1305;72410;-66
2023/04/01 01:35:10;;;;;;;6.50;2.80;;;;;;;3.28;100.00;98118.20;105110;1305;59574;-68
2023/04/01 01:38:13;;;;;;;6.90;2.90;;;;;;;3.20;100.00;98123.89;105279;1305;57912;-64
2023/04/01 01:41:06;;;;;;;7.40;3.10;;;;;;;3.17;100.00;98129.55;104898;1304;74116;-64
2023/04/01 01:43:56;;;;;;;7.10;3.30;;;;;;;3.11;100.00;98127.18;105166;1306;65464;-63
2023/04/01 01:46:45;;;;;;;7.70;3.50;;;;;;;3.08;100.00;98125.20;104951;1305;71756;-67
2023/04/01 01:49:35;;;;;;;8.00;3.60;;;;;;;3.06;100.00;98125.64;105022;1305;58715;-66
2023/04/01 01:52:24;;;;;;;6.10;2.90;;;;;;;3.06;100.00;98129.30;105246;1306;58937;-63
2023/04/01 01:55:30;;;;;;;8.40;4.00;;;;;;;3.05;100.00;98129.94;104966;1306;73084;-65
2023/04/01 01:58:40;;;;;;;8.40;4.10;;;;;;;3.02;100.00;98131.94;105234;1305;65428;-63
2023/04/01 02:01:33;;;;;;;8.20;4.40;;;;;;;3.01;100.00;98129.70;105009;1306;72698;-63
2023/04/01 02:04:26;;;;;;;8.30;4.20;;;;;;;3.03;100.00;98134.25;105086;1306;57739;-64
2023/04/01 02:07:24;;;;;;;6.40;2.70;;;;;;;3.04;100.00;98131.59;105220;1306;60410;-66
2023/04/01 02:10:11;;;;;;;8.30;3.70;;;;;;;3.03;100.00;98134.63;105056;1305;72149;-63
2023/04/01 02:13:06;;;;;;;7.30;3.10;;;;;;;3.02;100.00;98137.52;105181;1305;68953;-66
2023/04/01 02:15:56;;;;;;;8.80;4.00;;;;;;;3.01;100.00;98133.25;105102;1305;71742;-66
2023/04/01 02:18:48;;;;;;;7.90;3.60;;;;;;;2.96;100.00;98132.36;105069;1305;57374;-66
2023/04/01 02:21:36;;;;;;;8.60;3.30;;;;;;;2.97;100.00;98137.95;105255;1305;60152;-64
2023/04/01 02:24:26;;;;;;;6.90;3.00;;;;;;;2.97;100.00;98133.70;105011;1305;73188;-65
2023/04/01 02:27:13;;;;;;;;;;;;;;;3.02;100.00;98137.91;104504;1306;1002287;-65
2023/04/01 02:29:59;;;;;;;7.40;3.40;;;;;;;3.05;100.00;98137.79;105041;1306;72737;-67
2023/04/01 02:32:47;;;;;;;7.30;3.10;;;;;;;3.11;100.00;98140.36;105215;1306;59504;-64
2023/04/01 02:35:37;;;;;;;7.00;3.30;;;;;;;3.12;100.00;98139.20;105093;1305;60460;-66
2023/04/01 02:38:24;;;;;;;;;;;;;;;3.16;100.00;98137.82;104298;1306;1002243;-65
2023/04/01 02:41:11;;;;;;;;;;;;;;;3.20;100.00;98138.27;105218;1305;67745;-62
2023/04/01 02:43:59;;;;;;;6.50;2.70;;;;;;;3.21;100.00;98140.77;105414;1305;71583;-64
2023/04/01 02:46:46;;;;;;;6.90;2.70;;;;;;;3.22;100.00;98138.92;104988;1304;59831;-64
2023/04/01 02:49:33;;;;;;;7.70;2.80;;;;;;;3.20;100.00;98139.98;105147;1305;58946;-64
2023/04/01 02:52:19;;;;;;;7.10;3.10;;;;;;;3.16;100.00;98138.02;105115;1305;73379;-65
2023/04/01 02:55:07;;;;;;;6.90;2.90;;;;;;;3.16;100.00;98143.31;105477;1305;67660;-67
2023/04/01 02:57:54;;;;;;;6.50;2.70;;;;;;;3.11;100.00;98144.02;103967;1305;1002561;-66
2023/04/01 03:00:50;;;;;;;6.80;2.70;;;;;;;3.07;100.00;98143.80;105062;1305;58819;-68
2023/04/01 03:03:40;;;;;;;6.30;2.40;;;;;;;3.04;100.00;98149.11;105200;1306;58754;-64
2023/04/01 03:06:27;;;;;;;7.10;2.70;;;;;;;3.04;100.00;98152.98;102985;1306;1002864;-64
2023/04/01 03:09:14;;;;;;;6.20;2.50;;;;;;;3.05;100.00;98154.48;105147;1305;68746;-66
2023/04/01 03:12:00;;;;;;;7.80;3.20;;;;;;;3.10;100.00;98157.95;105273;1305;71289;-66
2023/04/01 03:14:53;;;;;;;7.00;2.60;;;;;;;3.14;100.00;98164.48;105051;1305;58930;-66
2023/04/01 03:17:41;;;;;;;7.20;3.00;;;;;;;3.14;100.00;98167.67;105007;1304;58819;-63
2023/04/01 03:20:27;;;;;;;8.20;3.20;;;;;;;3.14;100.00;98168.33;105237;1306;73144;-66
2023/04/01 03:23:17;;;;;;;8.00;3.10;;;;;;;3.18;100.00;98176.59;105156;1306;66745;-65
2023/04/01 03:26:03;;;;;;;8.40;3.60;;;;;;;3.21;100.00;98177.77;104977;1307;71458;-66
2023/04/01 03:28:55;;;;;;;7.10;3.10;;;;;;;3.24;100.00;98174.41;105157;1305;59403;-65
2023/04/01 03:31:42;;;;;;;6.70;2.60;;;;;;;3.24;100.00;98175.80;105265;1304;58880;-63
2023/04/01 03:34:29;;;;;;;6.90;3.00;;;;;;;3.19;100.00;98179.00;105192;1305;72097;-67
2023/04/01 03:37:15;;;;;;;6.40;2.90;;;;;;;3.17;100.00;98181.41;105215;1305;66800;-67
2023/04/01 03:40:02;;;;;;;8.20;3.60;;;;;;;3.14;100.00;98181.34;105181;1305;72473;-67
2023/04/01 03:42:50;;;;;;;7.50;3.20;;;;;;;3.13;100.00;98178.73;105046;1305;58694;-65
2023/04/01 03:45:44;;;;;;;;;;;;;;;3.11;100.00;98175.94;105399;1305;60123;-68
2023/04/01 03:48:30;;;;;;;;;;;;;;;3.10;100.00;98178.46;105190;1305;73051;-67
2023/04/01 03:51:17;;;;;;;;;;;;;;;3.10;100.00;98175.84;105217;1304;67732;-66
2023/04/01 03:54:03;;;;;;;7.70;3.10;;;;;;;3.11;100.00;98177.14;105041;1305;73594;-68
2023/04/01 03:56:50;;;;;;;;;;;;;;;3.08;100.00;98176.64;104960;1306;57924;-66
2023/04/01 03:59:36;;;;;;;;;;;;;;;3.06;100.00;98176.98;105134;1307;60207;-67
2023/04/01 04:02:25;;;;;;;7.80;3.10;;;;;;;3.06;100.00;98177.02;105217;1305;71779;-69
2023/04/01 04:05:13;;;;;;;7.00;3.00;;;;;;;3.08;100.00;98177.23;105069;1305;68028;-68
2023/04/01 04:07:59;;;;;;;;;;;;;;;3.07;100.00;98179.54;105175;1305;72870;-69
2023/04/01 04:10:46;;;;;;;8.00;3.70;;;;;;;3.11;100.00;98183.95;105247;1305;57350;-68
2023/04/01 04:13:33;;;;;;;7.50;3.20;;;;;;;3.15;100.00;98189.45;105303;1306;60301;-68
2023/04/01 04:16:20;;;;;;;9.40;3.60;;;;;;;3.19;100.00;98195.95;105159;1306;74014;-63
2023/04/01 04:19:12;;;;;;;9.00;3.60;;;;;;;3.21;100.00;98194.92;105006;1306;68718;-64
2023/04/01 04:22:01;;;;;;;9.20;3.80;;;;;;;3.22;100.00;98195.03;105048;1306;71212;-67
2023/04/01 04:24:48;;;;;;;8.80;3.20;;;;;;;3.27;100.00;98194.69;104988;1305;60864;-66
2023/04/01 04:27:35;;;;;;;6.30;2.80;;;;;;;3.29;100.00;98194.48;105464;1304;58782;-67
2023/04/01 04:32:32;;;;;;;8.40;3.60;;;;;;;3.38;100.00;98196.49;105000;1293;599345;-65
2023/04/01 04:35:20;;;;;;;8.10;3.40;;;;;;;3.35;100.00;98201.95;106362;1275;59204;-66
2023/04/01 04:38:09;;;;;;;7.90;3.40;;;;;;;3.35;100.00;98197.23;105219;1272;59245;-70
2023/04/01 04:40:58;;;;;;;8.30;3.20;;;;;;;3.33;100.00;98201.04;104969;1272;71305;-67
2023/04/01 04:43:55;;;;;;;7.40;2.90;;;;;;;3.31;100.00;98198.77;104856;1267;66698;-69
2023/04/01 04:46:44;;;;;;;6.70;2.50;;;;;;;3.29;100.00;98203.45;105252;1269;199255;-69
2023/04/01 04:49:34;;;;;;;6.80;2.80;;;;;;;3.25;100.00;98202.73;100902;1276;1003728;-67
2023/04/01 04:52:26;;;;;;;6.90;3.10;;;;;;;3.22;100.00;98204.12;104951;1270;60391;-68
2023/04/01 04:55:15;;;;;;;7.10;2.50;;;;;;;3.21;100.00;98203.03;104763;1271;69838;-68
2023/04/01 04:58:04;;;;;;;7.10;3.00;;;;;;;3.19;100.00;98205.27;104783;1273;67284;-69
2023/04/01 05:00:53;;;;;;;8.40;3.10;;;;;;;3.19;100.00;98202.82;105196;1266;72827;-69
2023/04/01 05:03:48;;;;;;;7.30;2.80;;;;;;;3.16;100.00;98210.93;105354;1273;59336;-68
2023/04/01 05:06:37;;;;;;;7.30;2.80;;;;;;;3.15;100.00;98210.11;104581;1271;60494;-67
2023/04/01 05:09:25;;;;;;;6.90;2.60;;;;;;;3.14;100.00;98211.28;106044;1269;71553;-82
2023/04/01 05:12:14;;;;;;;7.40;3.00;;;;;;;3.14;100.00;98215.60;106261;1270;66316;-82
2023/04/01 05:15:20;;;;;;;7.50;3.30;;;;;;;3.16;100.00;98219.55;106133;1270;71602;-80
2023/04/01 05:18:09;;;;;;;7.10;3.00;;;;;;;3.17;100.00;98218.58;105780;1276;57994;-82
2023/04/01 05:20:58;;;;;;;8.10;3.30;;;;;;;3.17;100.00;98220.52;105538;1269;60107;-81
2023/04/01 05:23:46;;;;;;;6.60;2.80;;;;;;;3.15;100.00;98221.20;105581;1273;71706;-80
2023/04/01 05:26:35;;;;;;;6.30;2.40;;;;;;;3.13;100.00;98225.17;106043;1268;66404;-80
2023/04/01 05:29:25;;;;;;;6.50;2.70;;;;;;;3.10;100.00;98227.02;106051;1276;71414;-79
2023/04/01 05:32:25;;;;;;;6.30;2.40;;;;;;;3.09;100.00;98233.35;105646;1273;60838;-66
2023/04/01 05:35:13;;;;;;;6.40;2.70;;;;;;;3.09;100.00;98231.29;105117;1270;60641;-67
2023/04/01 05:38:03;;;;;;;6.40;2.20;;;;;;;3.09;100.00;98236.52;105250;1264;71749;-64
2023/04/01 05:40:59;;;;;;;6.70;2.30;;;;;;;3.05;100.00;98235.41;105905;1257;67375;-63
2023/04/01 05:43:47;;;;;;;6.20;2.30;;;;;;;3.05;100.00;98238.39;105674;1260;72591;-68
2023/04/01 05:46:56;;;;;;;6.40;2.50;;;;;;;3.06;100.00;98242.70;105737;1260;59708;-64
2023/04/01 05:49:46;;;;;;;5.90;2.10;;;;;;;3.07;100.00;98241.42;105647;1260;60312;-66
2023/04/01 05:52:34;;;;;;;6.00;2.20;;;;;;;3.09;100.00;98249.86;105875;1254;72073;-68
2023/04/01 05:55:23;;;;;;;6.00;2.20;;;;;;;3.05;100.00;98252.23;104970;1262;1002920;-67
2023/04/01 05:58:11;;;;;;;5.50;2.00;;;;;;;3.04;100.00;98248.78;105779;1261;74024;-67
2023/04/01 06:01:04;;;;;;;6.60;2.40;;;;;;;3.05;100.00;98255.59;105849;1260;59416;-66
2023/04/01 06:04:02;;;;;;;6.80;2.00;;;;;;;3.07;100.00;98257.87;105975;1254;60817;-66
2023/04/01 06:06:51;;;;;;;4.90;1.50;;;;;;;3.09;100.00;98264.20;105864;1255;71718;-66
2023/04/01 06:09:41;;;;;;;5.40;1.60;;;;;;;3.10;100.00;98260.30;105793;1254;66333;-66
2023/04/01 06:13:10;;;;;;;5.20;1.70;;;;;;;3.05;100.00;98261.52;105629;1259;73187;-65
2023/04/01 06:16:50;;;;;;;5.70;1.80;;;;;;;3.05;100.00;98269.90;105660;1263;59251;-64
2023/04/01 06:19:46;;;;;;;5.90;2.00;;;;;;;3.06;100.00;98276.88;105503;1263;60917;-68
2023/04/01 06:23:19;;;;;;;5.50;1.80;;;;;;;3.07;100.00;98283.84;105539;1263;71191;-67
2023/04/01 06:26:34;;;;;;;6.40;1.90;;;;;;;3.11;100.00;98288.98;105284;1266;67341;-64
2023/04/01 06:29:59;;;;;;;5.60;1.90;;;;;;;3.10;100.00;98287.95;105465;1264;71497;-65
2023/04/01 06:33:15;;;;;;;6.40;2.30;;;;;;;3.11;100.00;98292.13;105347;1260;59348;-69
2023/04/01 06:36:47;;;;;;;7.00;3.00;;;;;;;3.12;100.00;98295.20;105357;1259;59321;-68
2023/04/01 06:40:23;;;;;;;7.50;2.50;;;;;;;3.10;100.00;98299.73;105703;1266;71857;-69
2023/04/01 06:44:05;;;;;;;6.20;2.50;;;;;;;3.09;100.00;98299.79;105817;1261;66457;-69
2023/04/01 06:47:58;;;;;;;6.70;2.20;;;;;;;3.10;100.00;98305.71;105601;1260;72364;-68
2023/04/01 06:51:47;;;;;;;7.40;2.20;;;;;;;3.12;100.00;98313.76;105569;1260;59254;-67
2023/04/01 06:55:37;;;;;;;5.70;1.80;;;;;;;3.19;100.00;98320.08;105659;1258;60618;-67
2023/04/01 06:58:46;;;;;;;6.80;2.20;;;;;;;3.14;100.00;98319.75;105959;1254;73212;-69
2023/04/01 07:01:44;;;;;;;5.60;1.80;;;;;;;3.13;100.00;98320.54;105740;1253;68375;-67
2023/04/01 07:04:43;;;;;;;5.90;1.90;;;;;;;3.08;100.00;98323.17;106061;1253;72196;-68
2023/04/01 07:07:48;;;;;;;5.50;1.70;;;;;;;3.02;100.00;98334.13;105860;1260;59359;-68
2023/04/01 07:11:01;;;;;;;5.50;1.90;;;;;;;2.98;100.00;98340.74;105700;1254;60795;-66
2023/04/01 07:14:30;;;;;;;6.30;2.30;;;;;;;2.93;100.00;98348.08;105779;1257;72443;-69
2023/04/01 07:17:34;;;;;;;5.80;2.10;;;;;;;2.90;100.00;98346.52;105952;1254;67618;-68
2023/04/01 07:20:31;;;;;;;6.10;2.20;;;;;;;2.90;100.00;98350.45;105667;1260;71850;-69
2023/04/01 07:23:32;;;;;;;5.90;2.20;;;;;;;2.87;100.00;98355.52;105457;1254;60081;-67
2023/04/01 07:26:30;;;;;;;6.50;2.20;;;;;;;2.83;100.00;98361.77;104674;1260;1002978;-70
2023/04/01 07:29:33;;;;;;;6.50;2.10;;;;;;;2.85;100.00;98365.68;105648;1260;71697;-69
2023/04/01 07:32:50;;;;;;;6.30;2.20;;;;;;;2.85;100.00;98367.09;105822;1254;68635;-66
2023/04/01 07:35:44;;;;;;;6.20;2.20;;;;;;;2.85;100.00;98374.58;106821;1254;71273;-69
2023/04/01 07:38:50;;;;;;;8.60;2.00;;;;;;;2.85;100.00;98373.19;106066;1260;60013;-70
2023/04/01 07:42:19;;;;;;;6.10;1.90;;;;;;;2.88;100.00;98373.50;105626;1254;59873;-66
2023/04/01 07:45:42;;;;;;;7.40;2.10;;;;;;;2.87;100.00;98376.70;105932;1255;70386;-69
2023/04/01 07:49:20;;;;;;;6.80;2.00;;;;;;;2.88;100.00;98376.29;106101;1256;67916;-68
2023/04/01 07:53:01;;;;;;;6.90;2.40;;;;;;;2.87;100.00;98380.73;105559;1254;72640;-67
2023/04/01 07:56:09;;;;;;;5.90;1.70;;;;;;;2.87;100.00;98387.21;105702;1261;59657;-68
2023/04/01 07:59:09;;;;;;;7.70;2.10;;;;;;;2.88;100.00;98395.19;105859;1254;60675;-68
2023/04/01 08:02:47;;;;;;;6.00;1.80;;;;;;;2.88;100.00;98393.85;105967;1254;70448;-67
2023/04/01 08:06:00;;;;;;;6.20;1.70;;;;;;;2.94;100.00;98396.04;106028;1259;65729;-68
2023/04/01 08:08:58;;;;;;;5.90;1.70;;;;;;;3.01;100.00;98402.02;106196;1258;71025;-68
2023/04/01 08:12:29;;;;;;;5.40;1.50;;;;;;;3.05;100.00;98403.84;106000;1256;59285;-67
2023/04/01 08:16:04;;;;;;;5.70;1.60;;;;;;;3.06;100.00;98409.69;106070;1259;59596;-67
2023/04/01 08:20:01;;;;;;;5.40;1.80;;;;;;;3.02;100.00;98414.75;105361;1261;72239;-67
2023/04/01 08:23:12;;;;;;;6.20;2.00;;;;;;;2.98;100.00;98418.55;105654;1260;66372;-68
2023/04/01 08:26:29;;;;;;;6.30;2.10;;;;;;;2.93;100.00;98420.66;105501;1260;71391;-66
2023/04/01 08:29:23;;;;;;;5.80;2.00;;;;;;;2.85;100.00;98427.70;105469;1259;59423;-64
2023/04/01 08:32:28;;;;;;;6.10;2.10;;;;;;;2.77;100.00;98436.84;105612;1260;61117;-67
2023/04/01 08:35:37;;;;;;;5.50;1.90;;;;;;;2.73;100.00;98440.26;105685;1263;69760;-67
2023/04/01 08:38:33;;;;;;;6.50;2.30;;;;;;;2.69;100.00;98439.12;105803;1260;67032;-66
2023/04/01 08:41:25;;;;;;;7.40;2.30;;;;;;;2.74;100.00;98445.63;105733;1268;71776;-67
2023/04/01 08:45:07;;;;;;;6.40;2.10;;;;;;;2.77;100.00;98453.17;106349;1260;60679;-67
2023/04/01 08:48:35;;;;;;;6.80;2.00;;;;;;;2.79;100.00;98456.30;105586;1264;60203;-67
2023/04/01 08:51:48;;;;;;;6.10;1.80;;;;;;;2.83;100.00;98460.98;105504;1260;70750;-66
2023/04/01 08:55:21;;;;;;;8.90;3.20;;;;;;;2.89;100.00;98463.30;105957;1254;67319;-67
2023/04/01 08:58:52;;;;;;;6.30;1.70;;;;;;;2.89;100.00;98445.06;105844;1256;72246;-67
2023/04/01 09:02:35;;;;;;;6.10;2.00;;;;;;;3.10;100.00;98459.39;105995;1260;60279;-67
2023/04/01 09:06:07;;;;;;;6.10;2.30;;;;;;;3.18;100.00;98463.48;105470;1264;60403;-66
2023/04/01 09:08:58;;;;;;;4.90;1.60;;;;;;;3.26;100.00;98468.38;105347;1262;72854;-67
2023/04/01 09:12:14;;;;;;;6.60;1.70;;;;;;;3.27;100.00;98467.29;105401;1267;69429;-66
2023/04/01 09:15:30;;;;;;;4.90;1.40;;;;;;;3.25;100.00;98473.69;105391;1262;73168;-68
2023/04/01 09:18:59;;;;;;;5.80;1.50;;;;;;;3.22;100.00;98476.88;105254;1264;59273;-68
2023/04/01 09:22:09;;;;;;;5.30;1.70;;;;;;;3.26;100.00;98478.02;105343;1267;59476;-67
2023/04/01 09:25:52;;;;;;;5.30;1.60;;;;;;;3.25;100.00;98469.15;105252;1266;72192;-67
2023/04/01 09:29:16;;;;;;;5.10;1.50;;;;;;;3.43;100.00;98489.44;105340;1261;69029;-68
2023/04/01 09:32:36;;;;;;;5.90;1.40;;;;;;;3.44;100.00;98495.84;105238;1268;72425;-67
2023/04/01 09:35:52;;;;;;;5.80;1.60;;;;;;;3.41;100.00;98498.11;104281;1279;59649;-66
2023/04/01 09:38:56;;;;;;;5.10;1.60;;;;;;;3.43;100.00;98499.43;104392;1274;59872;-67
2023/04/01 09:41:55;;;;;;;6.40;1.40;;;;;;;3.50;100.00;98505.41;104487;1273;71974;-68
2023/04/01 09:45:15;;;;;;;4.80;1.40;;;;;;;3.52;100.00;98509.63;105089;1268;67382;-65
2023/04/01 09:48:19;;;;;;;5.80;1.40;;;;;;;3.52;100.00;98515.20;104774;1270;72105;-67
2023/04/01 09:51:41;;;;;;;5.30;1.40;;;;;;;3.48;99.95;98516.79;105228;1269;59390;-67
2023/04/01 09:55:23;;;;;;;5.70;1.60;;;;;;;3.45;100.00;98515.77;105297;1273;59339;-80
2023/04/01 09:58:31;;;;;;;6.10;2.00;;;;;;;3.36;100.00;98521.61;105386;1268;70805;-77
2023/04/01 10:02:13;;;;;;;5.20;1.50;;;;;;;3.32;100.00;98524.04;105039;1273;67931;-64
2023/04/01 10:05:34;;;;;;;22.60;10.20;;;;;;;3.27;100.00;98527.74;104871;1268;72142;-65
2023/04/01 10:09:09;;;;;;;6.10;1.70;;;;;;;3.23;100.00;98534.83;104903;1269;60347;-67
2023/04/01 10:12:20;;;;;;;6.80;1.80;;;;;;;3.21;100.00;98541.15;105467;1261;61083;-67
2023/04/01 10:15:33;;;;;;;6.90;1.80;;;;;;;3.22;100.00;98544.20;106076;1254;72840;-66
2023/04/01 10:19:16;;;;;;;7.10;2.00;;;;;;;3.25;100.00;98551.21;105913;1256;67090;-66
2023/04/01 10:22:35;;;;;;;5.40;1.70;;;;;;;3.22;100.00;98557.88;105221;1254;1003758;-66
2023/04/01 10:25:42;;;;;;;7.10;1.80;;;;;;;3.16;100.00;98560.41;105983;1257;59342;-66
2023/04/01 10:28:54;;;;;;;5.80;1.50;;;;;;;3.12;99.97;98565.79;105978;1254;61669;-65
2023/04/01 10:32:17;;;;;;;5.50;1.70;;;;;;;3.11;100.00;98571.14;105993;1254;70609;-67
2023/04/01 10:35:39;;;;;;;5.80;2.00;;;;;;;3.06;100.00;98574.07;106182;1258;68930;-64
2023/04/01 10:38:55;;;;;;;6.70;1.90;;;;;;;3.04;100.00;98577.04;106042;1260;71910;-65
2023/04/01 10:42:25;;;;;;;6.40;1.80;;;;;;;3.08;100.00;98574.45;105896;1255;59323;-67
2023/04/01 10:45:49;;;;;;;7.20;1.80;;;;;;;3.20;100.00;98569.80;107857;1254;60719;-68
2023/04/01 10:49:20;;;;;;;7.00;2.00;;;;;;;3.21;100.00;98569.88;108153;1254;71578;-68
2023/04/01 10:52:45;;;;;;;5.80;1.50;;;;;;;3.22;99.98;98581.75;108198;1254;67193;-65
2023/04/01 10:56:40;;;;;;;4.80;1.30;;;;;;;3.10;99.59;98585.39;106184;1254;72679;-67
2023/04/01 11:00:29;;;;;;;5.50;1.60;;;;;;;3.10;100.00;98586.98;105833;1261;59375;-73
2023/04/01 11:04:24;;;;;;;5.60;1.90;;;;;;;3.19;100.00;98594.00;105425;1268;60336;-70
2023/04/01 11:08:19;;;;;;;7.00;1.50;;;;;;;3.16;99.41;98591.40;104748;1267;1003009;-70
2023/04/01 11:11:35;;;;;;;5.70;1.40;;;;;;;3.08;98.92;98604.80;105271;1266;66566;-69
2023/04/01 11:14:41;;;;;;;5.80;1.40;;;;;;;3.01;98.98;98610.34;105285;1267;72754;-67
2023/04/01 11:17:52;;;;;;;5.00;1.30;;;;;;;2.96;99.72;98610.86;105956;1263;59342;-71
2023/04/01 11:21:30;;;;;;;6.10;1.70;;;;;;;2.97;100.00;98619.02;105342;1263;60419;-68
2023/04/01 11:25:05;;;;;;;4.90;1.30;;;;;;;2.96;99.72;98619.45;105121;1264;72434;-70
2023/04/01 11:28:09;;;;;;;5.60;1.70;;;;;;;2.97;100.00;98622.52;105553;1263;67605;-67
2023/04/01 11:32:05;;;;;;;5.60;1.40;;;;;;;2.99;100.00;98626.06;105881;1260;72730;-70
2023/04/01 11:35:40;;;;;;;4.90;1.40;;;;;;;3.04;99.92;98631.52;105867;1260;59257;-67
2023/04/01 11:39:20;;;;;;;6.50;1.60;;;;;;;3.04;99.43;98632.24;105404;1266;59255;-70
2023/04/01 11:43:11;;;;;;;4.70;1.30;;;;;;;3.01;99.61;98638.91;105816;1253;71227;-71
2023/04/01 11:47:28;;;;;;;5.20;1.50;;;;;;;2.94;99.04;98637.13;105665;1254;66622;-68
2023/04/01 11:51:11;;;;;;;6.10;1.50;;;;;;;2.92;98.58;98642.34;106222;1253;74819;-69
2023/04/01 11:54:48;;;;;;;5.30;1.50;;;;;;;2.95;98.96;98641.45;105940;1254;59243;-70
2023/04/01 11:58:22;;;;;;;5.30;1.60;;;;;;;3.02;99.02;98644.27;105774;1259;59586;-70
2023/04/01 12:01:41;;;;;;;4.50;1.30;;;;;;;3.15;98.48;98651.11;105691;1260;71164;-70
2023/04/01 12:05:08;;;;;;;6.00;1.60;;;;;;;3.17;97.65;98649.05;105560;1254;66804;-69
2023/04/01 12:08:22;;;;;;;4.50;1.20;;;;;;;3.13;98.46;98650.02;105812;1254;73955;-68
2023/04/01 12:11:35;;;;;;;6.30;2.10;;;;;;;3.12;98.71;98654.11;105761;1255;59356;-69
2023/04/01 12:15:00;;;;;;;6.60;1.60;;;;;;;3.18;98.88;98657.21;105862;1254;60086;-67
2023/04/01 12:17:58;;;;;;;6.50;1.70;;;;;;;3.19;98.39;98657.48;106011;1259;72081;-71
2023/04/01 12:21:06;;;;;;;6.30;1.60;;;;;;;3.20;98.20;98662.45;105975;1259;67835;-69
2023/04/01 12:24:25;;;;;;;6.00;1.90;;;;;;;3.20;98.63;98662.10;105355;1262;74221;-67
2023/04/01 12:27:19;;;;;;;5.80;2.00;;;;;;;3.11;98.47;98669.95;105915;1257;59243;-70
2023/04/01 12:30:35;;;;;;;6.80;2.40;;;;;;;3.06;98.51;98670.28;105618;1260;59865;-71
2023/04/01 12:33:48;;;;;;;5.90;2.30;;;;;;;3.09;98.63;98677.06;105701;1259;70609;-68
2023/04/01 12:37:08;;;;;;;5.70;1.90;;;;;;;3.08;98.67;98677.14;105831;1258;66330;-70
2023/04/01 12:40:03;;;;;;;5.30;1.60;;;;;;;3.01;98.40;98681.69;105817;1259;74497;-68
2023/04/01 12:43:24;;;;;;;6.20;1.60;;;;;;;2.94;98.19;98690.39;105536;1264;59449;-67
2023/04/01 12:46:50;;;;;;;7.00;1.90;;;;;;;2.86;98.69;98696.68;105644;1262;59816;-69
2023/04/01 12:50:21;;;;;;;5.60;1.50;;;;;;;2.86;99.27;98701.02;105816;1259;73036;-65
2023/04/01 12:53:44;;;;;;;6.70;1.90;;;;;;;2.83;98.40;98706.19;105553;1258;69825;-68
2023/04/01 12:56:51;;;;;;;4.70;1.20;;;;;;;2.89;99.38;98708.73;105677;1259;73006;-67
2023/04/01 13:00:23;;;;;;;5.50;1.60;;;;;;;2.81;98.00;98712.79;105779;1260;59305;-67
2023/04/01 13:03:21;;;;;;;5.30;1.40;;;;;;;2.78;98.89;98719.11;105729;1259;59378;-68
2023/04/01 13:06:41;;;;;;;6.20;1.60;;;;;;;2.77;98.58;98725.48;105961;1259;72489;-70
2023/04/01 13:10:06;;;;;;;5.20;1.60;;;;;;;2.77;99.22;98724.44;105791;1254;67713;-67
2023/04/01 13:13:23;;;;;;;5.60;1.80;;;;;;;2.73;99.25;98731.52;106175;1258;71127;-68
2023/04/01 13:16:50;;;;;;;5.60;1.30;;;;;;;2.65;98.83;98734.69;106391;1258;59317;-67
2023/04/01 13:20:04;;;;;;;5.70;1.70;;;;;;;2.61;99.94;98737.91;105790;1254;60947;-67
2023/04/01 13:23:15;;;;;;;5.10;1.30;;;;;;;2.57;99.76;98752.02;105479;1254;71627;-66
2023/04/01 13:26:34;;;;;;;6.20;1.40;;;;;;;2.52;99.89;98755.66;105755;1255;67297;-71
2023/04/01 13:29:35;;;;;;;6.50;1.70;;;;;;;2.48;100.00;98756.65;105933;1254;72570;-68
2023/04/01 13:32:49;;;;;;;5.20;1.60;;;;;;;2.43;100.00;98758.38;105955;1253;60007;-68
2023/04/01 13:36:04;;;;;;;5.90;2.10;;;;;;;2.46;100.00;98764.14;106031;1253;60442;-69
2023/04/01 13:39:21;;;;;;;6.40;2.10;;;;;;;2.41;100.00;98763.77;105886;1254;70875;-71
2023/04/01 13:42:35;;;;;;;5.80;1.60;;;;;;;2.33;100.00;98766.33;105944;1253;67039;-68
2023/04/01 13:45:50;;;;;;;10.10;4.00;;;;;;;2.31;100.00;98769.63;106037;1254;72019;-66
2023/04/01 13:48:55;;;;;;;7.20;2.60;;;;;;;2.30;100.00;98772.38;106120;1257;59248;-67
2023/04/01 13:52:19;;;;;;;7.10;2.40;;;;;;;2.27;100.00;98772.16;106418;1256;59516;-64
2023/04/01 13:55:31;;;;;;;7.70;2.10;;;;;;;2.26;100.00;98774.70;106645;1253;72663;-67
2023/04/01 13:58:38;;;;;;;5.50;1.80;;;;;;;2.25;100.00;98778.62;106847;1253;66641;-67
2023/04/01 14:02:14;;;;;;;7.50;2.10;;;;;;;2.26;100.00;98785.89;106022;1253;73113;-69
2023/04/01 14:05:56;;;;;;;6.80;2.20;;;;;;;2.25;100.00;98790.51;106031;1257;59357;-67
2023/04/01 14:08:49;;;;;;;6.10;2.30;;;;;;;2.24;100.00;98793.18;105448;1260;60095;-65
2023/04/01 14:11:58;;;;;;;7.50;2.60;;;;;;;2.24;100.00;98796.36;105240;1259;71448;-68
2023/04/01 14:15:21;;;;;;;6.90;2.60;;;;;;;2.25;100.00;98798.42;105753;1260;68925;-69
2023/04/01 14:18:59;;;;;;;8.70;2.20;;;;;;;2.25;100.00;98794.73;105682;1260;73807;-66
2023/04/01 14:22:12;;;;;;;8.00;2.50;;;;;;;2.24;100.00;98811.75;104860;1267;59484;-65
2023/04/01 14:25:32;;;;;;;8.10;2.50;;;;;;;2.20;100.00;98811.13;105170;1268;60788;-66
2023/04/01 14:29:14;;;;;;;6.20;2.20;;;;;;;2.15;100.00;98816.70;104959;1266;72687;-64
2023/04/01 14:32:37;;;;;;;10.20;3.20;;;;;;;2.11;100.00;98819.60;105451;1268;65437;-66
2023/04/01 14:35:35;;;;;;;6.50;2.30;;;;;;;2.07;100.00;98822.80;105120;1268;73995;-67
2023/04/01 14:38:54;;;;;;;13.50;3.00;;;;;;;2.02;100.00;98818.34;104934;1267;59394;-65